Islip, NY (11751)

7:14 PM EST on December 07, 2016 (GMT -0500)
East Islip | | Change Station

Elev 20 ft 40.72 °N, 73.18 °W | Updated 15 seconds ago

Mostly Cloudy
Mostly Cloudy
39.6 °F
Feels Like 40 °F
N
0.0
Wind Variable Wind from WSW

Today
High -- | Low -- °F
--% Chance of Precip.
Yesterday
High -- | Low -- °F
Precip. -- in
Pressure 30.04 in
Visibility 10.0 miles
Clouds Scattered Clouds 3600 ft
Mostly Cloudy 15000 ft
Mostly Cloudy 17000 ft
Windchill 40 °F
Dew Point 37 °F
Humidity 90%
Rainfall 0.05 in
Snow Depth Not available.
7:03 AM 4:25 PM
First Quarter, 57% visible
METAR KISP 072356Z 28004KT 10SM SCT036 BKN150 BKN170 06/03 A3003 RMK AO2 SLP170 60000 T00560028 10078 20056 51016
Pressure 30.04 in
Visibility 10.0 miles
Clouds Scattered Clouds 3600 ft
Mostly Cloudy 15000 ft
Mostly Cloudy 17000 ft
Windchill 40 °F
Dew Point 37 °F
Humidity 90%
Rainfall 0.05 in
Snow Depth Not available.
7:03 AM 4:25 PM
First Quarter, 57% visible
METAR KISP 072356Z 28004KT 10SM SCT036 BKN150 BKN170 06/03 A3003 RMK AO2 SLP170 60000 T00560028 10078 20056 51016

10-Day Weather Forecast

Almanac

Astronomy

Dec. 07, 2016 Rise Set
Actual Time
Civil Twilight
Nautical Twilight
Astronomical Twilight
Moon
Length of Visible Light
Length of Day
Tomorrow will be .
, % of the Moon is Illuminated

Today's Extremes

State Highs State Lows

Community

WunderPhotos

Upload Photos

1,956,221 photos uploaded!

WunderBlog® & News

Nearby

Air Quality

  Air Quality AQ Index Pollutant
Not available.

Snow Depth

Station Depth Elevation

Earthquake Activity

City Distance Mag. Time & Date
Minimum magnitude displayed is 2.5.

Coastal Water Temperatures

Place Temperature

Stations

Nearby Weather Stations

Station Location Temp. Windchill Dew Point Humidity Wind Precip. Elev Updated Type
                   

Watches & Warnings

There are currently no watches in effect.